sensor_id;sensor_type;location;lat;lon;timestamp;P1;durP1;ratioP1;P2;durP2;ratioP2
78542;SDS011;67836;52.430;14.446;2023-04-06T00:00:17;14.18;;;7.63;;
78542;SDS011;67836;52.430;14.446;2023-04-06T00:03:02;5.85;;;4.40;;
78542;SDS011;67836;52.430;14.446;2023-04-06T00:05:46;18.42;;;8.80;;
78542;SDS011;67836;52.430;14.446;2023-04-06T00:08:31;15.55;;;7.85;;
78542;SDS011;67836;52.430;14.446;2023-04-06T00:11:14;18.85;;;9.73;;
78542;SDS011;67836;52.430;14.446;2023-04-06T00:14:00;19.42;;;8.98;;
78542;SDS011;67836;52.430;14.446;2023-04-06T00:16:44;9.43;;;5.22;;
78542;SDS011;67836;52.430;14.446;2023-04-06T00:19:28;23.00;;;11.18;;
78542;SDS011;67836;52.430;14.446;2023-04-06T00:22:12;22.45;;;10.63;;
78542;SDS011;67836;52.430;14.446;2023-04-06T00:24:56;15.35;;;8.43;;
78542;SDS011;67836;52.430;14.446;2023-04-06T00:27:40;19.48;;;9.82;;
78542;SDS011;67836;52.430;14.446;2023-04-06T00:30:24;20.33;;;9.23;;
78542;SDS011;67836;52.430;14.446;2023-04-06T00:33:08;18.30;;;10.15;;
78542;SDS011;67836;52.430;14.446;2023-04-06T00:35:52;15.07;;;8.90;;
78542;SDS011;67836;52.430;14.446;2023-04-06T00:38:37;22.10;;;11.57;;
78542;SDS011;67836;52.430;14.446;2023-04-06T00:41:20;20.75;;;11.43;;
78542;SDS011;67836;52.430;14.446;2023-04-06T00:44:04;22.63;;;10.98;;
78542;SDS011;67836;52.430;14.446;2023-04-06T00:46:49;20.13;;;11.13;;
78542;SDS011;67836;52.430;14.446;2023-04-06T00:49:33;21.85;;;10.68;;
78542;SDS011;67836;52.430;14.446;2023-04-06T00:52:17;18.33;;;10.23;;
78542;SDS011;67836;52.430;14.446;2023-04-06T00:55:02;23.17;;;11.10;;
78542;SDS011;67836;52.430;14.446;2023-04-06T00:57:46;22.13;;;11.65;;
78542;SDS011;67836;52.430;14.446;2023-04-06T01:00:31;19.50;;;9.77;;
78542;SDS011;67836;52.430;14.446;2023-04-06T01:03:15;19.45;;;10.52;;
78542;SDS011;67836;52.430;14.446;2023-04-06T01:06:00;21.70;;;10.40;;
78542;SDS011;67836;52.430;14.446;2023-04-06T01:08:44;19.58;;;10.18;;
78542;SDS011;67836;52.430;14.446;2023-04-06T01:11:28;18.52;;;9.38;;
78542;SDS011;67836;52.430;14.446;2023-04-06T01:14:12;15.88;;;9.68;;
78542;SDS011;67836;52.430;14.446;2023-04-06T01:16:57;17.05;;;9.55;;
78542;SDS011;67836;52.430;14.446;2023-04-06T01:19:42;18.80;;;9.30;;
78542;SDS011;67836;52.430;14.446;2023-04-06T01:22:26;16.38;;;7.95;;
78542;SDS011;67836;52.430;14.446;2023-04-06T01:25:10;14.98;;;7.90;;
78542;SDS011;67836;52.430;14.446;2023-04-06T01:27:53;13.13;;;7.43;;
78542;SDS011;67836;52.430;14.446;2023-04-06T01:30:37;19.13;;;9.02;;
78542;SDS011;67836;52.430;14.446;2023-04-06T01:33:21;15.23;;;8.48;;
78542;SDS011;67836;52.430;14.446;2023-04-06T01:36:06;12.75;;;6.43;;
78542;SDS011;67836;52.430;14.446;2023-04-06T01:38:50;15.57;;;9.27;;
78542;SDS011;67836;52.430;14.446;2023-04-06T01:41:34;17.02;;;9.07;;
78542;SDS011;67836;52.430;14.446;2023-04-06T01:44:18;14.77;;;8.65;;
78542;SDS011;67836;52.430;14.446;2023-04-06T01:47:02;9.85;;;5.47;;
78542;SDS011;67836;52.430;14.446;2023-04-06T01:49:46;4.15;;;2.40;;
78542;SDS011;67836;52.430;14.446;2023-04-06T01:52:30;6.70;;;2.55;;
78542;SDS011;67836;52.430;14.446;2023-04-06T01:55:14;14.13;;;7.10;;
78542;SDS011;67836;52.430;14.446;2023-04-06T01:57:58;14.13;;;6.50;;
78542;SDS011;67836;52.430;14.446;2023-04-06T02:00:42;16.00;;;7.72;;
78542;SDS011;67836;52.430;14.446;2023-04-06T02:03:26;12.10;;;6.45;;
78542;SDS011;67836;52.430;14.446;2023-04-06T02:06:10;16.17;;;7.80;;
78542;SDS011;67836;52.430;14.446;2023-04-06T02:08:54;11.75;;;6.50;;
78542;SDS011;67836;52.430;14.446;2023-04-06T02:11:38;13.02;;;7.32;;
78542;SDS011;67836;52.430;14.446;2023-04-06T02:14:24;14.63;;;7.22;;
78542;SDS011;67836;52.430;14.446;2023-04-06T02:17:09;16.55;;;7.95;;
78542;SDS011;67836;52.430;14.446;2023-04-06T02:19:53;12.50;;;6.88;;
78542;SDS011;67836;52.430;14.446;2023-04-06T02:22:37;12.10;;;6.32;;
78542;SDS011;67836;52.430;14.446;2023-04-06T02:25:21;17.27;;;7.22;;
78542;SDS011;67836;52.430;14.446;2023-04-06T02:28:05;15.43;;;6.80;;
78542;SDS011;67836;52.430;14.446;2023-04-06T02:30:49;12.45;;;6.60;;
78542;SDS011;67836;52.430;14.446;2023-04-06T02:33:33;12.02;;;6.38;;
78542;SDS011;67836;52.430;14.446;2023-04-06T02:36:18;16.00;;;7.68;;
78542;SDS011;67836;52.430;14.446;2023-04-06T02:41:46;17.27;;;7.80;;
78542;SDS011;67836;52.430;14.446;2023-04-06T02:44:30;13.73;;;7.43;;
78542;SDS011;67836;52.430;14.446;2023-04-06T02:47:14;14.15;;;7.45;;
78542;SDS011;67836;52.430;14.446;2023-04-06T02:49:59;13.95;;;7.93;;
78542;SDS011;67836;52.430;14.446;2023-04-06T02:52:43;13.38;;;6.65;;
78542;SDS011;67836;52.430;14.446;2023-04-06T02:55:27;14.27;;;7.80;;
78542;SDS011;67836;52.430;14.446;2023-04-06T02:58:11;14.07;;;7.30;;
78542;SDS011;67836;52.430;14.446;2023-04-06T03:00:55;13.45;;;6.97;;
78542;SDS011;67836;52.430;14.446;2023-04-06T03:03:38;12.23;;;6.63;;
78542;SDS011;67836;52.430;14.446;2023-04-06T03:06:22;12.63;;;7.68;;
78542;SDS011;67836;52.430;14.446;2023-04-06T03:09:06;14.55;;;7.85;;
78542;SDS011;67836;52.430;14.446;2023-04-06T03:11:51;14.05;;;7.07;;
78542;SDS011;67836;52.430;14.446;2023-04-06T03:14:35;13.15;;;7.05;;
78542;SDS011;67836;52.430;14.446;2023-04-06T03:17:19;13.18;;;7.00;;
78542;SDS011;67836;52.430;14.446;2023-04-06T03:20:04;12.88;;;6.90;;
78542;SDS011;67836;52.430;14.446;2023-04-06T03:22:49;13.80;;;7.72;;
78542;SDS011;67836;52.430;14.446;2023-04-06T03:25:32;14.40;;;6.75;;
78542;SDS011;67836;52.430;14.446;2023-04-06T03:28:16;11.15;;;5.90;;
78542;SDS011;67836;52.430;14.446;2023-04-06T03:31:01;15.73;;;8.02;;
78542;SDS011;67836;52.430;14.446;2023-04-06T03:33:45;12.15;;;7.45;;
78542;SDS011;67836;52.430;14.446;2023-04-06T03:36:29;14.50;;;7.22;;
78542;SDS011;67836;52.430;14.446;2023-04-06T03:39:13;14.60;;;6.47;;
78542;SDS011;67836;52.430;14.446;2023-04-06T03:41:57;13.55;;;7.57;;
78542;SDS011;67836;52.430;14.446;2023-04-06T03:44:41;18.45;;;8.02;;
78542;SDS011;67836;52.430;14.446;2023-04-06T03:47:25;14.77;;;8.23;;
78542;SDS011;67836;52.430;14.446;2023-04-06T03:50:09;13.90;;;6.40;;
78542;SDS011;67836;52.430;14.446;2023-04-06T03:52:53;15.48;;;7.07;;
78542;SDS011;67836;52.430;14.446;2023-04-06T03:55:37;12.18;;;6.53;;
78542;SDS011;67836;52.430;14.446;2023-04-06T03:58:21;13.52;;;7.80;;
78542;SDS011;67836;52.430;14.446;2023-04-06T04:01:05;12.55;;;6.15;;
78542;SDS011;67836;52.430;14.446;2023-04-06T04:03:49;11.00;;;4.72;;
78542;SDS011;67836;52.430;14.446;2023-04-06T04:06:33;11.15;;;5.45;;
78542;SDS011;67836;52.430;14.446;2023-04-06T04:09:20;6.82;;;3.85;;
78542;SDS011;67836;52.430;14.446;2023-04-06T04:12:04;7.88;;;5.07;;
78542;SDS011;67836;52.430;14.446;2023-04-06T04:14:48;7.70;;;4.22;;
78542;SDS011;67836;52.430;14.446;2023-04-06T04:17:32;11.98;;;6.35;;
78542;SDS011;67836;52.430;14.446;2023-04-06T04:20:16;9.00;;;4.63;;
78542;SDS011;67836;52.430;14.446;2023-04-06T04:23:00;9.60;;;4.38;;
78542;SDS011;67836;52.430;14.446;2023-04-06T04:25:43;8.82;;;2.70;;
78542;SDS011;67836;52.430;14.446;2023-04-06T04:28:28;11.73;;;6.03;;
78542;SDS011;67836;52.430;14.446;2023-04-06T04:31:12;10.98;;;5.90;;
78542;SDS011;67836;52.430;14.446;2023-04-06T04:33:57;11.55;;;6.03;;
78542;SDS011;67836;52.430;14.446;2023-04-06T04:36:41;13.13;;;6.45;;
78542;SDS011;67836;52.430;14.446;2023-04-06T04:39:28;16.45;;;6.70;;
78542;SDS011;67836;52.430;14.446;2023-04-06T04:42:12;7.25;;;3.47;;
78542;SDS011;67836;52.430;14.446;2023-04-06T04:44:57;12.98;;;6.88;;
78542;SDS011;67836;52.430;14.446;2023-04-06T04:47:41;13.52;;;7.15;;
78542;SDS011;67836;52.430;14.446;2023-04-06T04:50:25;14.68;;;7.40;;
78542;SDS011;67836;52.430;14.446;2023-04-06T04:53:09;7.78;;;3.85;;
78542;SDS011;67836;52.430;14.446;2023-04-06T04:55:53;10.48;;;6.55;;
78542;SDS011;67836;52.430;14.446;2023-04-06T04:58:37;13.60;;;6.88;;
78542;SDS011;67836;52.430;14.446;2023-04-06T05:01:21;13.65;;;6.95;;
78542;SDS011;67836;52.430;14.446;2023-04-06T05:04:05;14.27;;;6.93;;
78542;SDS011;67836;52.430;14.446;2023-04-06T05:06:49;10.75;;;5.63;;
78542;SDS011;67836;52.430;14.446;2023-04-06T05:09:33;14.02;;;6.78;;
78542;SDS011;67836;52.430;14.446;2023-04-06T05:12:18;16.45;;;7.95;;
78542;SDS011;67836;52.430;14.446;2023-04-06T05:15:03;12.68;;;6.55;;
78542;SDS011;67836;52.430;14.446;2023-04-06T05:17:47;14.23;;;7.03;;
78542;SDS011;67836;52.430;14.446;2023-04-06T05:20:31;13.20;;;7.15;;
78542;SDS011;67836;52.430;14.446;2023-04-06T05:23:15;13.00;;;7.28;;
78542;SDS011;67836;52.430;14.446;2023-04-06T05:25:59;14.18;;;6.95;;
78542;SDS011;67836;52.430;14.446;2023-04-06T05:28:43;14.27;;;7.13;;
78542;SDS011;67836;52.430;14.446;2023-04-06T05:31:27;14.40;;;7.65;;
78542;SDS011;67836;52.430;14.446;2023-04-06T05:34:12;15.10;;;6.07;;
78542;SDS011;67836;52.430;14.446;2023-04-06T05:36:57;4.63;;;2.92;;
78542;SDS011;67836;52.430;14.446;2023-04-06T05:39:41;12.15;;;5.32;;
78542;SDS011;67836;52.430;14.446;2023-04-06T05:42:25;17.80;;;4.50;;
78542;SDS011;67836;52.430;14.446;2023-04-06T05:45:09;12.90;;;6.75;;
78542;SDS011;67836;52.430;14.446;2023-04-06T05:47:54;8.00;;;3.92;;
78542;SDS011;67836;52.430;14.446;2023-04-06T05:50:38;4.85;;;2.28;;
78542;SDS011;67836;52.430;14.446;2023-04-06T05:53:22;13.35;;;6.07;;
78542;SDS011;67836;52.430;14.446;2023-04-06T05:56:08;13.38;;;6.60;;
78542;SDS011;67836;52.430;14.446;2023-04-06T05:58:52;11.18;;;6.70;;
78542;SDS011;67836;52.430;14.446;2023-04-06T06:01:36;19.63;;;7.47;;
78542;SDS011;67836;52.430;14.446;2023-04-06T06:04:21;12.10;;;6.30;;
78542;SDS011;67836;52.430;14.446;2023-04-06T06:07:05;15.15;;;6.90;;
78542;SDS011;67836;52.430;14.446;2023-04-06T06:09:49;12.93;;;6.30;;
78542;SDS011;67836;52.430;14.446;2023-04-06T06:12:33;15.10;;;8.00;;
78542;SDS011;67836;52.430;14.446;2023-04-06T06:15:17;15.75;;;6.80;;
78542;SDS011;67836;52.430;14.446;2023-04-06T06:18:01;12.45;;;7.05;;
78542;SDS011;67836;52.430;14.446;2023-04-06T06:20:45;15.43;;;7.18;;
78542;SDS011;67836;52.430;14.446;2023-04-06T06:23:29;12.20;;;6.70;;
78542;SDS011;67836;52.430;14.446;2023-04-06T06:26:15;13.10;;;6.97;;
78542;SDS011;67836;52.430;14.446;2023-04-06T06:28:59;15.18;;;7.75;;
78542;SDS011;67836;52.430;14.446;2023-04-06T06:31:43;17.85;;;7.65;;
78542;SDS011;67836;52.430;14.446;2023-04-06T06:34:27;11.57;;;5.80;;
78542;SDS011;67836;52.430;14.446;2023-04-06T06:37:12;9.52;;;5.07;;
78542;SDS011;67836;52.430;14.446;2023-04-06T06:39:57;13.40;;;7.30;;
78542;SDS011;67836;52.430;14.446;2023-04-06T06:42:41;14.75;;;7.05;;
78542;SDS011;67836;52.430;14.446;2023-04-06T06:45:24;13.50;;;7.30;;
78542;SDS011;67836;52.430;14.446;2023-04-06T06:48:09;7.93;;;4.15;;
78542;SDS011;67836;52.430;14.446;2023-04-06T06:50:53;8.43;;;3.67;;
78542;SDS011;67836;52.430;14.446;2023-04-06T06:53:37;6.95;;;3.83;;
78542;SDS011;67836;52.430;14.446;2023-04-06T06:56:21;10.20;;;4.72;;
78542;SDS011;67836;52.430;14.446;2023-04-06T06:59:05;6.32;;;3.58;;
78542;SDS011;67836;52.430;14.446;2023-04-06T07:01:50;4.93;;;2.55;;
78542;SDS011;67836;52.430;14.446;2023-04-06T07:04:33;9.50;;;5.85;;
78542;SDS011;67836;52.430;14.446;2023-04-06T07:07:17;10.43;;;5.03;;
78542;SDS011;67836;52.430;14.446;2023-04-06T07:10:01;9.80;;;4.78;;
78542;SDS011;67836;52.430;14.446;2023-04-06T07:12:46;8.45;;;5.30;;
78542;SDS011;67836;52.430;14.446;2023-04-06T07:15:30;11.15;;;5.97;;
78542;SDS011;67836;52.430;14.446;2023-04-06T07:18:15;11.02;;;4.20;;
78542;SDS011;67836;52.430;14.446;2023-04-06T07:20:59;7.13;;;3.92;;
78542;SDS011;67836;52.430;14.446;2023-04-06T07:23:43;11.63;;;6.15;;
78542;SDS011;67836;52.430;14.446;2023-04-06T07:26:28;12.68;;;7.57;;
78542;SDS011;67836;52.430;14.446;2023-04-06T07:29:12;10.13;;;5.22;;
78542;SDS011;67836;52.430;14.446;2023-04-06T07:31:56;11.23;;;7.15;;
78542;SDS011;67836;52.430;14.446;2023-04-06T07:34:40;7.13;;;3.67;;
78542;SDS011;67836;52.430;14.446;2023-04-06T07:37:24;11.88;;;7.03;;
78542;SDS011;67836;52.430;14.446;2023-04-06T07:40:08;12.02;;;7.03;;
78542;SDS011;67836;52.430;14.446;2023-04-06T07:42:53;15.75;;;8.48;;
78542;SDS011;67836;52.430;14.446;2023-04-06T07:45:37;6.97;;;2.80;;
78542;SDS011;67836;52.430;14.446;2023-04-06T07:48:24;8.13;;;3.80;;
78542;SDS011;67836;52.430;14.446;2023-04-06T07:51:08;9.57;;;5.30;;
78542;SDS011;67836;52.430;14.446;2023-04-06T07:53:54;12.10;;;6.30;;
78542;SDS011;67836;52.430;14.446;2023-04-06T07:56:38;10.70;;;6.20;;
78542;SDS011;67836;52.430;14.446;2023-04-06T07:59:22;11.35;;;6.70;;
78542;SDS011;67836;52.430;14.446;2023-04-06T08:02:06;12.10;;;6.22;;
78542;SDS011;67836;52.430;14.446;2023-04-06T08:04:50;12.30;;;6.63;;
78542;SDS011;67836;52.430;14.446;2023-04-06T08:07:34;12.48;;;5.40;;
78542;SDS011;67836;52.430;14.446;2023-04-06T08:10:19;9.45;;;4.55;;
78542;SDS011;67836;52.430;14.446;2023-04-06T08:13:03;10.38;;;4.03;;
78542;SDS011;67836;52.430;14.446;2023-04-06T08:15:47;6.18;;;2.80;;
78542;SDS011;67836;52.430;14.446;2023-04-06T08:18:31;6.88;;;2.97;;
78542;SDS011;67836;52.430;14.446;2023-04-06T08:21:15;7.68;;;3.72;;
78542;SDS011;67836;52.430;14.446;2023-04-06T08:23:59;8.82;;;4.22;;
78542;SDS011;67836;52.430;14.446;2023-04-06T08:26:44;9.27;;;3.72;;
78542;SDS011;67836;52.430;14.446;2023-04-06T08:29:28;5.13;;;2.05;;
78542;SDS011;67836;52.430;14.446;2023-04-06T08:32:12;5.65;;;2.80;;
78542;SDS011;67836;52.430;14.446;2023-04-06T08:34:56;9.27;;;3.80;;
78542;SDS011;67836;52.430;14.446;2023-04-06T08:37:40;7.82;;;3.13;;
78542;SDS011;67836;52.430;14.446;2023-04-06T08:40:24;7.78;;;3.67;;
78542;SDS011;67836;52.430;14.446;2023-04-06T08:43:09;6.35;;;3.00;;
78542;SDS011;67836;52.430;14.446;2023-04-06T08:45:56;5.28;;;2.65;;
78542;SDS011;67836;52.430;14.446;2023-04-06T08:48:42;7.18;;;3.63;;
78542;SDS011;67836;52.430;14.446;2023-04-06T08:51:27;5.60;;;2.58;;
78542;SDS011;67836;52.430;14.446;2023-04-06T08:54:11;7.65;;;2.97;;
78542;SDS011;67836;52.430;14.446;2023-04-06T08:56:56;4.57;;;2.67;;
78542;SDS011;67836;52.430;14.446;2023-04-06T08:59:40;5.30;;;2.55;;
78542;SDS011;67836;52.430;14.446;2023-04-06T09:02:24;7.72;;;3.35;;
78542;SDS011;67836;52.430;14.446;2023-04-06T09:05:09;5.20;;;2.47;;
78542;SDS011;67836;52.430;14.446;2023-04-06T09:07:56;7.35;;;3.33;;
78542;SDS011;67836;52.430;14.446;2023-04-06T09:10:40;5.55;;;2.63;;
78542;SDS011;67836;52.430;14.446;2023-04-06T09:13:25;7.70;;;3.90;;
78542;SDS011;67836;52.430;14.446;2023-04-06T09:16:08;7.55;;;3.13;;
78542;SDS011;67836;52.430;14.446;2023-04-06T09:18:53;5.82;;;3.20;;
78542;SDS011;67836;52.430;14.446;2023-04-06T09:21:37;5.70;;;2.00;;
78542;SDS011;67836;52.430;14.446;2023-04-06T09:24:23;6.22;;;2.85;;
78542;SDS011;67836;52.430;14.446;2023-04-06T09:27:10;9.55;;;3.70;;
78542;SDS011;67836;52.430;14.446;2023-04-06T09:30:01;6.38;;;2.25;;
78542;SDS011;67836;52.430;14.446;2023-04-06T09:32:51;5.15;;;2.80;;
78542;SDS011;67836;52.430;14.446;2023-04-06T09:35:37;8.23;;;3.55;;
78542;SDS011;67836;52.430;14.446;2023-04-06T09:38:21;7.50;;;3.28;;
78542;SDS011;67836;52.430;14.446;2023-04-06T09:41:05;6.75;;;3.10;;
78542;SDS011;67836;52.430;14.446;2023-04-06T09:46:51;7.93;;;3.78;;
78542;SDS011;67836;52.430;14.446;2023-04-06T09:49:37;8.23;;;3.35;;
78542;SDS011;67836;52.430;14.446;2023-04-06T09:52:21;6.85;;;3.35;;
78542;SDS011;67836;52.430;14.446;2023-04-06T09:55:10;6.68;;;3.00;;
78542;SDS011;67836;52.430;14.446;2023-04-06T09:58:16;7.38;;;3.00;;
78542;SDS011;67836;52.430;14.446;2023-04-06T10:01:10;6.13;;;2.95;;
78542;SDS011;67836;52.430;14.446;2023-04-06T10:04:00;8.85;;;3.67;;
78542;SDS011;67836;52.430;14.446;2023-04-06T10:06:57;5.70;;;2.80;;
78542;SDS011;67836;52.430;14.446;2023-04-06T10:09:43;6.50;;;2.90;;
78542;SDS011;67836;52.430;14.446;2023-04-06T10:12:29;8.07;;;4.22;;
78542;SDS011;67836;52.430;14.446;2023-04-06T10:15:13;9.07;;;4.10;;
78542;SDS011;67836;52.430;14.446;2023-04-06T10:18:00;8.43;;;3.83;;
78542;SDS011;67836;52.430;14.446;2023-04-06T10:21:01;7.95;;;3.85;;
78542;SDS011;67836;52.430;14.446;2023-04-06T10:23:49;7.80;;;3.70;;
78542;SDS011;67836;52.430;14.446;2023-04-06T10:26:34;7.63;;;3.28;;
78542;SDS011;67836;52.430;14.446;2023-04-06T10:29:19;6.97;;;2.63;;
78542;SDS011;67836;52.430;14.446;2023-04-06T10:32:04;7.72;;;3.42;;
78542;SDS011;67836;52.430;14.446;2023-04-06T10:34:48;6.45;;;2.85;;
78542;SDS011;67836;52.430;14.446;2023-04-06T10:37:45;6.47;;;2.47;;
78542;SDS011;67836;52.430;14.446;2023-04-06T10:40:36;6.43;;;3.03;;
78542;SDS011;67836;52.430;14.446;2023-04-06T10:43:22;5.53;;;2.95;;
78542;SDS011;67836;52.430;14.446;2023-04-06T10:46:07;8.65;;;4.40;;
78542;SDS011;67836;52.430;14.446;2023-04-06T10:48:53;7.55;;;3.80;;
78542;SDS011;67836;52.430;14.446;2023-04-06T10:51:37;7.75;;;4.00;;
78542;SDS011;67836;52.430;14.446;2023-04-06T10:54:23;7.05;;;3.55;;
78542;SDS011;67836;52.430;14.446;2023-04-06T10:57:08;6.25;;;3.15;;
78542;SDS011;67836;52.430;14.446;2023-04-06T10:59:53;8.30;;;4.20;;
78542;SDS011;67836;52.430;14.446;2023-04-06T11:02:37;9.95;;;4.95;;
78542;SDS011;67836;52.430;14.446;2023-04-06T11:05:24;7.28;;;3.58;;
78542;SDS011;67836;52.430;14.446;2023-04-06T11:08:08;7.15;;;3.63;;
78542;SDS011;67836;52.430;14.446;2023-04-06T11:13:54;9.63;;;3.83;;
78542;SDS011;67836;52.430;14.446;2023-04-06T11:16:39;7.65;;;4.38;;
78542;SDS011;67836;52.430;14.446;2023-04-06T11:19:23;8.10;;;4.55;;
78542;SDS011;67836;52.430;14.446;2023-04-06T11:22:07;8.90;;;4.28;;
78542;SDS011;67836;52.430;14.446;2023-04-06T11:24:52;9.00;;;5.30;;
78542;SDS011;67836;52.430;14.446;2023-04-06T11:27:36;9.02;;;4.47;;
78542;SDS011;67836;52.430;14.446;2023-04-06T11:30:20;7.35;;;3.88;;
78542;SDS011;67836;52.430;14.446;2023-04-06T11:33:04;6.38;;;3.10;;
78542;SDS011;67836;52.430;14.446;2023-04-06T11:35:48;7.78;;;4.30;;
78542;SDS011;67836;52.430;14.446;2023-04-06T11:38:32;10.75;;;4.40;;
78542;SDS011;67836;52.430;14.446;2023-04-06T11:41:16;8.30;;;4.57;;
78542;SDS011;67836;52.430;14.446;2023-04-06T11:44:00;9.63;;;4.20;;
78542;SDS011;67836;52.430;14.446;2023-04-06T11:46:56;8.13;;;3.78;;
78542;SDS011;67836;52.430;14.446;2023-04-06T11:49:41;6.43;;;3.35;;
78542;SDS011;67836;52.430;14.446;2023-04-06T11:52:27;7.97;;;3.95;;
78542;SDS011;67836;52.430;14.446;2023-04-06T11:55:12;10.93;;;5.97;;
78542;SDS011;67836;52.430;14.446;2023-04-06T11:58:00;7.15;;;3.42;;
78542;SDS011;67836;52.430;14.446;2023-04-06T12:00:44;8.40;;;3.50;;
78542;SDS011;67836;52.430;14.446;2023-04-06T12:03:31;9.38;;;4.28;;
78542;SDS011;67836;52.430;14.446;2023-04-06T12:06:15;6.70;;;3.83;;
78542;SDS011;67836;52.430;14.446;2023-04-06T12:08:59;7.35;;;3.25;;
78542;SDS011;67836;52.430;14.446;2023-04-06T12:11:43;7.88;;;3.58;;
78542;SDS011;67836;52.430;14.446;2023-04-06T12:14:27;7.20;;;3.75;;
78542;SDS011;67836;52.430;14.446;2023-04-06T12:17:11;2.70;;;1.95;;
78542;SDS011;67836;52.430;14.446;2023-04-06T12:19:55;8.10;;;3.90;;
78542;SDS011;67836;52.430;14.446;2023-04-06T12:22:39;8.85;;;3.80;;
78542;SDS011;67836;52.430;14.446;2023-04-06T12:25:23;6.10;;;2.95;;
78542;SDS011;67836;52.430;14.446;2023-04-06T12:28:07;8.38;;;4.20;;
78542;SDS011;67836;52.430;14.446;2023-04-06T12:30:51;7.38;;;4.15;;
78542;SDS011;67836;52.430;14.446;2023-04-06T12:33:36;9.82;;;3.95;;
78542;SDS011;67836;52.430;14.446;2023-04-06T12:36:20;6.93;;;3.05;;
78542;SDS011;67836;52.430;14.446;2023-04-06T12:39:05;8.38;;;4.60;;
78542;SDS011;67836;52.430;14.446;2023-04-06T12:41:48;8.65;;;4.50;;
78542;SDS011;67836;52.430;14.446;2023-04-06T12:44:32;9.02;;;4.40;;
78542;SDS011;67836;52.430;14.446;2023-04-06T12:47:16;5.53;;;2.63;;
78542;SDS011;67836;52.430;14.446;2023-04-06T12:50:01;9.25;;;4.30;;
78542;SDS011;67836;52.430;14.446;2023-04-06T12:52:46;7.47;;;3.97;;
78542;SDS011;67836;52.430;14.446;2023-04-06T12:55:31;7.25;;;3.28;;
78542;SDS011;67836;52.430;14.446;2023-04-06T12:58:17;4.57;;;2.58;;
78542;SDS011;67836;52.430;14.446;2023-04-06T13:01:05;8.25;;;4.63;;
78542;SDS011;67836;52.430;14.446;2023-04-06T13:03:50;7.53;;;4.00;;
78542;SDS011;67836;52.430;14.446;2023-04-06T13:06:34;4.88;;;2.15;;
78542;SDS011;67836;52.430;14.446;2023-04-06T13:09:18;8.68;;;3.95;;
78542;SDS011;67836;52.430;14.446;2023-04-06T13:12:03;7.18;;;3.70;;
78542;SDS011;67836;52.430;14.446;2023-04-06T13:14:47;5.82;;;3.28;;
78542;SDS011;67836;52.430;14.446;2023-04-06T13:17:35;7.95;;;3.65;;
78542;SDS011;67836;52.430;14.446;2023-04-06T13:20:19;4.63;;;2.42;;
78542;SDS011;67836;52.430;14.446;2023-04-06T13:23:04;7.95;;;3.28;;
78542;SDS011;67836;52.430;14.446;2023-04-06T13:25:48;7.18;;;3.60;;
78542;SDS011;67836;52.430;14.446;2023-04-06T13:28:32;7.25;;;3.38;;
78542;SDS011;67836;52.430;14.446;2023-04-06T13:31:17;8.60;;;3.75;;
78542;SDS011;67836;52.430;14.446;2023-04-06T13:34:01;6.72;;;3.40;;
78542;SDS011;67836;52.430;14.446;2023-04-06T13:36:45;7.45;;;3.85;;
78542;SDS011;67836;52.430;14.446;2023-04-06T13:39:29;6.63;;;3.42;;
78542;SDS011;67836;52.430;14.446;2023-04-06T13:42:13;9.45;;;3.92;;
78542;SDS011;67836;52.430;14.446;2023-04-06T13:44:57;7.55;;;3.22;;
78542;SDS011;67836;52.430;14.446;2023-04-06T13:47:42;5.78;;;3.05;;
78542;SDS011;67836;52.430;14.446;2023-04-06T13:50:27;6.10;;;3.30;;
78542;SDS011;67836;52.430;14.446;2023-04-06T13:53:11;6.55;;;3.20;;
78542;SDS011;67836;52.430;14.446;2023-04-06T13:55:55;2.83;;;1.38;;
78542;SDS011;67836;52.430;14.446;2023-04-06T13:58:39;6.65;;;3.38;;
78542;SDS011;67836;52.430;14.446;2023-04-06T14:01:23;6.30;;;3.25;;
78542;SDS011;67836;52.430;14.446;2023-04-06T14:04:08;3.70;;;1.73;;
78542;SDS011;67836;52.430;14.446;2023-04-06T14:06:53;6.88;;;3.25;;
78542;SDS011;67836;52.430;14.446;2023-04-06T14:09:37;7.07;;;3.70;;
78542;SDS011;67836;52.430;14.446;2023-04-06T14:12:21;6.90;;;3.20;;
78542;SDS011;67836;52.430;14.446;2023-04-06T14:15:05;6.97;;;3.10;;
78542;SDS011;67836;52.430;14.446;2023-04-06T14:17:50;5.35;;;2.83;;
78542;SDS011;67836;52.430;14.446;2023-04-06T14:20:34;3.95;;;2.10;;
78542;SDS011;67836;52.430;14.446;2023-04-06T14:23:18;5.07;;;2.60;;
78542;SDS011;67836;52.430;14.446;2023-04-06T14:26:06;5.95;;;2.67;;
78542;SDS011;67836;52.430;14.446;2023-04-06T14:28:52;5.70;;;2.80;;
78542;SDS011;67836;52.430;14.446;2023-04-06T14:31:39;5.93;;;3.00;;
78542;SDS011;67836;52.430;14.446;2023-04-06T14:34:23;5.88;;;2.60;;
78542;SDS011;67836;52.430;14.446;2023-04-06T14:37:07;5.47;;;2.67;;
78542;SDS011;67836;52.430;14.446;2023-04-06T14:39:51;5.65;;;2.55;;
78542;SDS011;67836;52.430;14.446;2023-04-06T14:42:36;5.35;;;2.70;;
78542;SDS011;67836;52.430;14.446;2023-04-06T14:45:21;5.45;;;2.13;;
78542;SDS011;67836;52.430;14.446;2023-04-06T14:48:06;6.57;;;2.67;;
78542;SDS011;67836;52.430;14.446;2023-04-06T14:50:53;5.63;;;2.97;;
78542;SDS011;67836;52.430;14.446;2023-04-06T14:53:38;8.25;;;4.00;;
78542;SDS011;67836;52.430;14.446;2023-04-06T14:56:22;6.85;;;3.42;;
78542;SDS011;67836;52.430;14.446;2023-04-06T14:59:07;7.00;;;3.85;;
78542;SDS011;67836;52.430;14.446;2023-04-06T15:01:51;6.97;;;3.75;;
78542;SDS011;67836;52.430;14.446;2023-04-06T15:04:35;5.97;;;3.47;;
78542;SDS011;67836;52.430;14.446;2023-04-06T15:07:19;5.68;;;3.25;;
78542;SDS011;67836;52.430;14.446;2023-04-06T15:10:04;6.40;;;3.38;;
78542;SDS011;67836;52.430;14.446;2023-04-06T15:12:49;7.20;;;3.55;;
78542;SDS011;67836;52.430;14.446;2023-04-06T15:15:33;5.43;;;2.63;;
78542;SDS011;67836;52.430;14.446;2023-04-06T15:18:17;6.70;;;3.78;;
78542;SDS011;67836;52.430;14.446;2023-04-06T15:21:01;6.28;;;3.20;;
78542;SDS011;67836;52.430;14.446;2023-04-06T15:23:45;7.32;;;3.75;;
78542;SDS011;67836;52.430;14.446;2023-04-06T15:26:29;5.57;;;2.58;;
78542;SDS011;67836;52.430;14.446;2023-04-06T15:29:13;8.45;;;3.35;;
78542;SDS011;67836;52.430;14.446;2023-04-06T15:31:57;7.78;;;3.40;;
78542;SDS011;67836;52.430;14.446;2023-04-06T15:34:41;6.88;;;2.95;;
78542;SDS011;67836;52.430;14.446;2023-04-06T15:37:26;5.57;;;2.13;;
78542;SDS011;67836;52.430;14.446;2023-04-06T15:40:10;6.20;;;3.10;;
78542;SDS011;67836;52.430;14.446;2023-04-06T15:42:57;6.68;;;3.17;;
78542;SDS011;67836;52.430;14.446;2023-04-06T15:45:41;6.55;;;2.25;;
78542;SDS011;67836;52.430;14.446;2023-04-06T15:48:25;8.07;;;3.53;;
78542;SDS011;67836;52.430;14.446;2023-04-06T15:51:09;6.00;;;2.97;;
78542;SDS011;67836;52.430;14.446;2023-04-06T15:53:53;7.75;;;3.50;;
78542;SDS011;67836;52.430;14.446;2023-04-06T15:56:37;7.40;;;3.20;;
78542;SDS011;67836;52.430;14.446;2023-04-06T15:59:21;7.85;;;3.28;;
78542;SDS011;67836;52.430;14.446;2023-04-06T16:02:05;7.47;;;3.28;;
78542;SDS011;67836;52.430;14.446;2023-04-06T16:04:49;6.38;;;2.67;;
78542;SDS011;67836;52.430;14.446;2023-04-06T16:07:37;5.75;;;3.28;;
78542;SDS011;67836;52.430;14.446;2023-04-06T16:10:21;5.57;;;2.72;;
78542;SDS011;67836;52.430;14.446;2023-04-06T16:13:06;7.35;;;3.50;;
78542;SDS011;67836;52.430;14.446;2023-04-06T16:15:51;5.68;;;3.00;;
78542;SDS011;67836;52.430;14.446;2023-04-06T16:18:35;8.18;;;3.40;;